sensor_id;sensor_type;location;lat;lon;timestamp;temperature;humidity
68801;SHT31;55784;50.734;7.086;2023-05-27T00:00:47;12.19;74.32
68801;SHT31;55784;50.734;7.086;2023-05-27T00:03:13;12.22;74.04
68801;SHT31;55784;50.734;7.086;2023-05-27T00:05:38;12.15;74.07
68801;SHT31;55784;50.734;7.086;2023-05-27T00:08:04;12.23;74.05
68801;SHT31;55784;50.734;7.086;2023-05-27T00:10:29;12.15;74.57
68801;SHT31;55784;50.734;7.086;2023-05-27T00:12:54;12.22;74.41
68801;SHT31;55784;50.734;7.086;2023-05-27T00:15:20;12.21;74.24
68801;SHT31;55784;50.734;7.086;2023-05-27T00:17:46;12.18;74.60
68801;SHT31;55784;50.734;7.086;2023-05-27T00:20:12;12.11;74.82
68801;SHT31;55784;50.734;7.086;2023-05-27T00:22:37;12.06;74.93
68801;SHT31;55784;50.734;7.086;2023-05-27T00:25:03;12.03;74.70
68801;SHT31;55784;50.734;7.086;2023-05-27T00:27:29;12.01;74.90
68801;SHT31;55784;50.734;7.086;2023-05-27T00:29:55;11.95;75.12
68801;SHT31;55784;50.734;7.086;2023-05-27T00:32:20;11.83;75.63
68801;SHT31;55784;50.734;7.086;2023-05-27T00:34:45;11.72;75.81
68801;SHT31;55784;50.734;7.086;2023-05-27T00:37:10;11.77;76.74
68801;SHT31;55784;50.734;7.086;2023-05-27T00:39:36;11.67;76.73
68801;SHT31;55784;50.734;7.086;2023-05-27T00:42:01;11.57;77.02
68801;SHT31;55784;50.734;7.086;2023-05-27T00:44:27;11.48;77.15
68801;SHT31;55784;50.734;7.086;2023-05-27T00:46:53;11.38;77.43
68801;SHT31;55784;50.734;7.086;2023-05-27T00:49:19;11.30;77.73
68801;SHT31;55784;50.734;7.086;2023-05-27T00:51:44;11.27;77.93
68801;SHT31;55784;50.734;7.086;2023-05-27T00:54:10;11.20;78.17
68801;SHT31;55784;50.734;7.086;2023-05-27T00:56:36;11.13;78.40
68801;SHT31;55784;50.734;7.086;2023-05-27T00:59:02;11.10;78.71
68801;SHT31;55784;50.734;7.086;2023-05-27T01:01:27;11.09;78.80
68801;SHT31;55784;50.734;7.086;2023-05-27T01:03:54;11.07;78.91
68801;SHT31;55784;50.734;7.086;2023-05-27T01:06:42;11.04;79.06
68801;SHT31;55784;50.734;7.086;2023-05-27T01:09:33;10.97;79.15
68801;SHT31;55784;50.734;7.086;2023-05-27T01:12:27;10.89;79.39
68801;SHT31;55784;50.734;7.086;2023-05-27T01:14:57;10.83;79.60
68801;SHT31;55784;50.734;7.086;2023-05-27T01:17:25;10.79;79.70
68801;SHT31;55784;50.734;7.086;2023-05-27T01:19:52;10.73;79.85
68801;SHT31;55784;50.734;7.086;2023-05-27T01:22:19;10.79;79.93
68801;SHT31;55784;50.734;7.086;2023-05-27T01:24:45;10.83;79.86
68801;SHT31;55784;50.734;7.086;2023-05-27T01:27:11;10.87;79.90
68801;SHT31;55784;50.734;7.086;2023-05-27T01:29:38;10.83;79.69
68801;SHT31;55784;50.734;7.086;2023-05-27T01:32:08;10.80;79.72
68801;SHT31;55784;50.734;7.086;2023-05-27T01:34:47;10.67;80.02
68801;SHT31;55784;50.734;7.086;2023-05-27T01:37:19;10.62;80.29
68801;SHT31;55784;50.734;7.086;2023-05-27T01:39:46;10.57;80.42
68801;SHT31;55784;50.734;7.086;2023-05-27T01:42:12;10.55;80.60
68801;SHT31;55784;50.734;7.086;2023-05-27T01:44:38;10.48;80.79
68801;SHT31;55784;50.734;7.086;2023-05-27T01:47:03;10.44;80.99
68801;SHT31;55784;50.734;7.086;2023-05-27T01:49:29;10.44;81.00
68801;SHT31;55784;50.734;7.086;2023-05-27T01:51:55;10.42;81.19
68801;SHT31;55784;50.734;7.086;2023-05-27T01:54:20;10.39;81.61
68801;SHT31;55784;50.734;7.086;2023-05-27T01:56:46;10.34;81.75
68801;SHT31;55784;50.734;7.086;2023-05-27T01:59:11;10.29;81.73
68801;SHT31;55784;50.734;7.086;2023-05-27T02:01:36;10.29;81.72
68801;SHT31;55784;50.734;7.086;2023-05-27T02:04:02;10.26;81.69
68801;SHT31;55784;50.734;7.086;2023-05-27T02:06:29;10.28;81.76
68801;SHT31;55784;50.734;7.086;2023-05-27T02:08:54;10.22;81.81
68801;SHT31;55784;50.734;7.086;2023-05-27T02:11:20;10.22;81.88
68801;SHT31;55784;50.734;7.086;2023-05-27T02:13:45;10.16;81.90
68801;SHT31;55784;50.734;7.086;2023-05-27T02:16:11;10.12;82.08
68801;SHT31;55784;50.734;7.086;2023-05-27T02:18:38;10.06;82.32
68801;SHT31;55784;50.734;7.086;2023-05-27T02:21:04;10.05;82.53
68801;SHT31;55784;50.734;7.086;2023-05-27T02:23:34;10.02;82.54
68801;SHT31;55784;50.734;7.086;2023-05-27T02:25:59;10.05;82.63
68801;SHT31;55784;50.734;7.086;2023-05-27T02:28:26;10.06;82.62
68801;SHT31;55784;50.734;7.086;2023-05-27T02:30:51;10.06;82.91
68801;SHT31;55784;50.734;7.086;2023-05-27T02:33:16;10.01;83.07
68801;SHT31;55784;50.734;7.086;2023-05-27T02:35:42;9.99;83.07
68801;SHT31;55784;50.734;7.086;2023-05-27T02:38:07;9.95;83.11
68801;SHT31;55784;50.734;7.086;2023-05-27T02:40:32;9.88;83.15
68801;SHT31;55784;50.734;7.086;2023-05-27T02:42:58;9.88;83.23
68801;SHT31;55784;50.734;7.086;2023-05-27T02:45:23;9.84;83.41
68801;SHT31;55784;50.734;7.086;2023-05-27T02:47:49;9.81;83.47
68801;SHT31;55784;50.734;7.086;2023-05-27T02:50:15;9.91;83.93
68801;SHT31;55784;50.734;7.086;2023-05-27T02:52:40;9.90;83.89
68801;SHT31;55784;50.734;7.086;2023-05-27T02:55:06;9.80;83.78
68801;SHT31;55784;50.734;7.086;2023-05-27T02:57:32;9.78;83.73
68801;SHT31;55784;50.734;7.086;2023-05-27T02:59:57;9.73;83.67
68801;SHT31;55784;50.734;7.086;2023-05-27T03:02:23;9.69;83.72
68801;SHT31;55784;50.734;7.086;2023-05-27T03:04:48;9.63;83.76
68801;SHT31;55784;50.734;7.086;2023-05-27T03:07:14;9.54;84.14
68801;SHT31;55784;50.734;7.086;2023-05-27T03:09:39;9.47;84.24
68801;SHT31;55784;50.734;7.086;2023-05-27T03:12:05;9.42;84.41
68801;SHT31;55784;50.734;7.086;2023-05-27T03:14:31;9.43;84.82
68801;SHT31;55784;50.734;7.086;2023-05-27T03:16:56;9.46;85.10
68801;SHT31;55784;50.734;7.086;2023-05-27T03:19:22;9.39;85.11
68801;SHT31;55784;50.734;7.086;2023-05-27T03:21:47;9.39;84.93
68801;SHT31;55784;50.734;7.086;2023-05-27T03:24:13;9.36;84.81
68801;SHT31;55784;50.734;7.086;2023-05-27T03:26:38;9.34;85.13
68801;SHT31;55784;50.734;7.086;2023-05-27T03:29:04;9.33;84.79
68801;SHT31;55784;50.734;7.086;2023-05-27T03:31:29;9.27;84.75
68801;SHT31;55784;50.734;7.086;2023-05-27T03:33:54;9.23;84.93
68801;SHT31;55784;50.734;7.086;2023-05-27T03:36:20;9.20;84.77
68801;SHT31;55784;50.734;7.086;2023-05-27T03:38:46;9.18;84.85
68801;SHT31;55784;50.734;7.086;2023-05-27T03:41:12;9.16;84.70
68801;SHT31;55784;50.734;7.086;2023-05-27T03:43:37;9.12;84.81
68801;SHT31;55784;50.734;7.086;2023-05-27T03:46:02;9.15;84.68
68801;SHT31;55784;50.734;7.086;2023-05-27T03:48:28;9.16;84.75
68801;SHT31;55784;50.734;7.086;2023-05-27T03:50:53;9.22;85.28
68801;SHT31;55784;50.734;7.086;2023-05-27T03:53:19;9.32;85.00
68801;SHT31;55784;50.734;7.086;2023-05-27T03:55:44;9.40;84.67
68801;SHT31;55784;50.734;7.086;2023-05-27T03:58:10;9.44;84.70
68801;SHT31;55784;50.734;7.086;2023-05-27T04:00:39;9.46;84.43
68801;SHT31;55784;50.734;7.086;2023-05-27T04:03:04;9.46;84.86
68801;SHT31;55784;50.734;7.086;2023-05-27T04:05:30;9.47;84.57
68801;SHT31;55784;50.734;7.086;2023-05-27T04:07:56;9.51;84.77
68801;SHT31;55784;50.734;7.086;2023-05-27T04:10:21;9.77;83.67
68801;SHT31;55784;50.734;7.086;2023-05-27T04:12:46;10.05;82.61
68801;SHT31;55784;50.734;7.086;2023-05-27T04:15:11;10.25;81.74
68801;SHT31;55784;50.734;7.086;2023-05-27T04:17:37;10.31;81.41
68801;SHT31;55784;50.734;7.086;2023-05-27T04:20:02;10.44;81.16
68801;SHT31;55784;50.734;7.086;2023-05-27T04:22:38;10.55;80.70
68801;SHT31;55784;50.734;7.086;2023-05-27T04:25:04;10.76;80.23
68801;SHT31;55784;50.734;7.086;2023-05-27T04:27:29;10.79;79.87
68801;SHT31;55784;50.734;7.086;2023-05-27T04:29:54;11.00;79.53
68801;SHT31;55784;50.734;7.086;2023-05-27T04:32:20;11.32;78.46
68801;SHT31;55784;50.734;7.086;2023-05-27T04:34:45;11.37;78.22
68801;SHT31;55784;50.734;7.086;2023-05-27T04:37:11;11.74;77.11
68801;SHT31;55784;50.734;7.086;2023-05-27T04:39:36;11.88;76.44
68801;SHT31;55784;50.734;7.086;2023-05-27T04:42:01;12.16;75.79
68801;SHT31;55784;50.734;7.086;2023-05-27T04:44:27;12.64;74.70
68801;SHT31;55784;50.734;7.086;2023-05-27T04:46:53;13.08;73.80
68801;SHT31;55784;50.734;7.086;2023-05-27T04:49:20;13.21;71.78
68801;SHT31;55784;50.734;7.086;2023-05-27T04:51:45;12.88;72.50
68801;SHT31;55784;50.734;7.086;2023-05-27T04:54:12;12.91;72.27
68801;SHT31;55784;50.734;7.086;2023-05-27T04:56:37;12.93;72.30
68801;SHT31;55784;50.734;7.086;2023-05-27T04:59:03;12.97;72.32
68801;SHT31;55784;50.734;7.086;2023-05-27T05:01:30;12.97;72.47
68801;SHT31;55784;50.734;7.086;2023-05-27T05:04:04;13.25;71.24
68801;SHT31;55784;50.734;7.086;2023-05-27T05:06:40;13.47;70.73
68801;SHT31;55784;50.734;7.086;2023-05-27T05:09:05;13.47;71.15
68801;SHT31;55784;50.734;7.086;2023-05-27T05:11:31;13.51;70.46
68801;SHT31;55784;50.734;7.086;2023-05-27T05:13:56;13.31;70.78
68801;SHT31;55784;50.734;7.086;2023-05-27T05:16:22;13.17;71.06
68801;SHT31;55784;50.734;7.086;2023-05-27T05:18:47;13.65;70.26
68801;SHT31;55784;50.734;7.086;2023-05-27T05:21:13;13.29;70.56
68801;SHT31;55784;50.734;7.086;2023-05-27T05:23:38;13.17;71.19
68801;SHT31;55784;50.734;7.086;2023-05-27T05:26:05;13.27;70.65
68801;SHT31;55784;50.734;7.086;2023-05-27T05:28:32;13.45;70.38
68801;SHT31;55784;50.734;7.086;2023-05-27T05:30:58;13.48;70.59
68801;SHT31;55784;50.734;7.086;2023-05-27T05:33:23;13.45;70.10
68801;SHT31;55784;50.734;7.086;2023-05-27T05:35:49;13.96;68.69
68801;SHT31;55784;50.734;7.086;2023-05-27T05:38:14;13.70;69.05
68801;SHT31;55784;50.734;7.086;2023-05-27T05:40:39;13.93;68.35
68801;SHT31;55784;50.734;7.086;2023-05-27T05:43:05;14.24;67.50
68801;SHT31;55784;50.734;7.086;2023-05-27T05:45:30;14.02;68.01
68801;SHT31;55784;50.734;7.086;2023-05-27T05:47:56;14.31;67.49
68801;SHT31;55784;50.734;7.086;2023-05-27T05:50:22;14.27;67.81
68801;SHT31;55784;50.734;7.086;2023-05-27T05:52:47;14.06;67.92
68801;SHT31;55784;50.734;7.086;2023-05-27T05:55:15;13.98;67.51
68801;SHT31;55784;50.734;7.086;2023-05-27T05:57:41;13.87;68.18
68801;SHT31;55784;50.734;7.086;2023-05-27T06:00:06;13.99;67.55
68801;SHT31;55784;50.734;7.086;2023-05-27T06:02:33;14.05;67.53
68801;SHT31;55784;50.734;7.086;2023-05-27T06:05:01;14.08;67.43
68801;SHT31;55784;50.734;7.086;2023-05-27T06:07:26;14.20;66.99
68801;SHT31;55784;50.734;7.086;2023-05-27T06:09:51;14.41;66.48
68801;SHT31;55784;50.734;7.086;2023-05-27T06:12:17;15.05;64.57
68801;SHT31;55784;50.734;7.086;2023-05-27T06:14:42;15.53;63.74
68801;SHT31;55784;50.734;7.086;2023-05-27T06:17:07;15.67;62.36
68801;SHT31;55784;50.734;7.086;2023-05-27T06:19:35;15.08;63.91
68801;SHT31;55784;50.734;7.086;2023-05-27T06:22:01;14.72;65.20
68801;SHT31;55784;50.734;7.086;2023-05-27T06:24:26;15.25;64.04
68801;SHT31;55784;50.734;7.086;2023-05-27T06:26:51;15.53;62.88
68801;SHT31;55784;50.734;7.086;2023-05-27T06:29:17;15.77;62.52
68801;SHT31;55784;50.734;7.086;2023-05-27T06:31:43;15.89;62.15
68801;SHT31;55784;50.734;7.086;2023-05-27T06:34:08;15.97;62.27
68801;SHT31;55784;50.734;7.086;2023-05-27T06:36:34;16.14;63.31
68801;SHT31;55784;50.734;7.086;2023-05-27T06:39:00;16.24;61.15
68801;SHT31;55784;50.734;7.086;2023-05-27T06:41:25;16.13;61.46
68801;SHT31;55784;50.734;7.086;2023-05-27T06:43:51;16.04;61.59
68801;SHT31;55784;50.734;7.086;2023-05-27T06:46:16;15.91;62.09
68801;SHT31;55784;50.734;7.086;2023-05-27T06:48:41;15.97;62.33
68801;SHT31;55784;50.734;7.086;2023-05-27T06:51:07;15.70;62.33
68801;SHT31;55784;50.734;7.086;2023-05-27T06:53:33;15.65;63.28
68801;SHT31;55784;50.734;7.086;2023-05-27T06:55:58;15.73;63.54
68801;SHT31;55784;50.734;7.086;2023-05-27T06:58:23;15.66;62.91
68801;SHT31;55784;50.734;7.086;2023-05-27T07:00:49;15.70;63.09
68801;SHT31;55784;50.734;7.086;2023-05-27T07:03:14;15.70;62.70
68801;SHT31;55784;50.734;7.086;2023-05-27T07:05:40;15.71;63.08
68801;SHT31;55784;50.734;7.086;2023-05-27T07:08:06;15.57;63.55
68801;SHT31;55784;50.734;7.086;2023-05-27T07:10:31;15.57;63.76
68801;SHT31;55784;50.734;7.086;2023-05-27T07:12:57;15.66;63.82
68801;SHT31;55784;50.734;7.086;2023-05-27T07:15:22;15.74;63.67
68801;SHT31;55784;50.734;7.086;2023-05-27T07:17:47;15.83;62.87
68801;SHT31;55784;50.734;7.086;2023-05-27T07:20:12;15.86;62.66
68801;SHT31;55784;50.734;7.086;2023-05-27T07:22:38;15.93;62.33
68801;SHT31;55784;50.734;7.086;2023-05-27T07:25:03;16.04;62.18
68801;SHT31;55784;50.734;7.086;2023-05-27T07:27:29;15.90;62.34
68801;SHT31;55784;50.734;7.086;2023-05-27T07:29:54;15.87;62.70
68801;SHT31;55784;50.734;7.086;2023-05-27T07:32:19;15.93;62.66
68801;SHT31;55784;50.734;7.086;2023-05-27T07:34:47;16.08;62.54
68801;SHT31;55784;50.734;7.086;2023-05-27T07:37:12;16.08;62.46
68801;SHT31;55784;50.734;7.086;2023-05-27T07:39:37;16.11;62.27
68801;SHT31;55784;50.734;7.086;2023-05-27T07:42:03;16.07;62.19
68801;SHT31;55784;50.734;7.086;2023-05-27T07:44:28;16.14;62.48
68801;SHT31;55784;50.734;7.086;2023-05-27T07:46:54;15.66;63.72
68801;SHT31;55784;50.734;7.086;2023-05-27T07:49:19;15.46;64.26
68801;SHT31;55784;50.734;7.086;2023-05-27T07:51:45;15.56;63.99
68801;SHT31;55784;50.734;7.086;2023-05-27T07:54:13;15.29;64.46
68801;SHT31;55784;50.734;7.086;2023-05-27T07:56:39;15.42;64.52
68801;SHT31;55784;50.734;7.086;2023-05-27T07:59:04;15.39;64.43
68801;SHT31;55784;50.734;7.086;2023-05-27T08:01:30;15.49;64.27
68801;SHT31;55784;50.734;7.086;2023-05-27T08:03:58;15.47;64.60
68801;SHT31;55784;50.734;7.086;2023-05-27T08:06:24;15.66;63.76
68801;SHT31;55784;50.734;7.086;2023-05-27T08:08:49;15.85;63.96
68801;SHT31;55784;50.734;7.086;2023-05-27T08:11:14;16.07;63.11
68801;SHT31;55784;50.734;7.086;2023-05-27T08:13:40;16.28;62.30
68801;SHT31;55784;50.734;7.086;2023-05-27T08:16:08;16.48;62.27
68801;SHT31;55784;50.734;7.086;2023-05-27T08:18:36;16.69;61.89
68801;SHT31;55784;50.734;7.086;2023-05-27T08:21:02;16.73;60.63
68801;SHT31;55784;50.734;7.086;2023-05-27T08:23:27;16.98;61.00
68801;SHT31;55784;50.734;7.086;2023-05-27T08:25:52;17.12;60.38
68801;SHT31;55784;50.734;7.086;2023-05-27T08:28:18;16.96;60.19
68801;SHT31;55784;50.734;7.086;2023-05-27T08:30:43;17.23;60.39
68801;SHT31;55784;50.734;7.086;2023-05-27T08:33:08;17.37;59.98
68801;SHT31;55784;50.734;7.086;2023-05-27T08:35:34;17.55;59.81
68801;SHT31;55784;50.734;7.086;2023-05-27T08:37:59;17.55;58.75
68801;SHT31;55784;50.734;7.086;2023-05-27T08:40:24;17.62;58.99
68801;SHT31;55784;50.734;7.086;2023-05-27T08:42:50;17.57;58.54
68801;SHT31;55784;50.734;7.086;2023-05-27T08:45:16;17.62;58.66
68801;SHT31;55784;50.734;7.086;2023-05-27T08:47:41;17.66;58.70
68801;SHT31;55784;50.734;7.086;2023-05-27T08:50:07;17.83;58.50
68801;SHT31;55784;50.734;7.086;2023-05-27T08:52:33;17.97;58.03
68801;SHT31;55784;50.734;7.086;2023-05-27T08:54:59;18.12;57.78
68801;SHT31;55784;50.734;7.086;2023-05-27T08:57:28;18.22;57.86
68801;SHT31;55784;50.734;7.086;2023-05-27T08:59:55;18.34;57.10
68801;SHT31;55784;50.734;7.086;2023-05-27T09:02:21;18.46;57.02
68801;SHT31;55784;50.734;7.086;2023-05-27T09:04:47;18.58;56.89
68801;SHT31;55784;50.734;7.086;2023-05-27T09:07:12;18.69;56.56
68801;SHT31;55784;50.734;7.086;2023-05-27T09:09:40;18.72;56.28
68801;SHT31;55784;50.734;7.086;2023-05-27T09:12:06;18.63;56.28
68801;SHT31;55784;50.734;7.086;2023-05-27T09:14:35;18.68;55.83
68801;SHT31;55784;50.734;7.086;2023-05-27T09:17:09;18.48;55.61
68801;SHT31;55784;50.734;7.086;2023-05-27T09:19:35;18.48;56.11
68801;SHT31;55784;50.734;7.086;2023-05-27T09:22:00;18.66;56.16
68801;SHT31;55784;50.734;7.086;2023-05-27T09:24:26;18.72;56.22
68801;SHT31;55784;50.734;7.086;2023-05-27T09:26:52;18.93;55.46
68801;SHT31;55784;50.734;7.086;2023-05-27T09:29:25;19.02;54.96
68801;SHT31;55784;50.734;7.086;2023-05-27T09:31:54;19.04;54.85
68801;SHT31;55784;50.734;7.086;2023-05-27T09:34:20;19.17;54.20
68801;SHT31;55784;50.734;7.086;2023-05-27T09:36:50;19.07;53.58
68801;SHT31;55784;50.734;7.086;2023-05-27T09:39:21;19.09;54.36
68801;SHT31;55784;50.734;7.086;2023-05-27T09:41:52;19.04;53.90
68801;SHT31;55784;50.734;7.086;2023-05-27T09:44:18;19.14;53.23
68801;SHT31;55784;50.734;7.086;2023-05-27T09:46:44;19.16;54.36
68801;SHT31;55784;50.734;7.086;2023-05-27T09:49:13;19.44;54.06
68801;SHT31;55784;50.734;7.086;2023-05-27T09:51:40;19.65;53.40
68801;SHT31;55784;50.734;7.086;2023-05-27T09:54:06;19.47;53.44
68801;SHT31;55784;50.734;7.086;2023-05-27T09:56:33;19.48;53.50
68801;SHT31;55784;50.734;7.086;2023-05-27T09:59:01;19.37;53.08
68801;SHT31;55784;50.734;7.086;2023-05-27T10:01:29;19.44;53.21
68801;SHT31;55784;50.734;7.086;2023-05-27T10:03:55;19.55;52.74
68801;SHT31;55784;50.734;7.086;2023-05-27T10:06:24;19.71;52.52
68801;SHT31;55784;50.734;7.086;2023-05-27T10:08:51;19.83;52.39
68801;SHT31;55784;50.734;7.086;2023-05-27T10:11:18;19.88;52.41
68801;SHT31;55784;50.734;7.086;2023-05-27T10:13:44;20.06;52.39
68801;SHT31;55784;50.734;7.086;2023-05-27T10:16:21;20.04;51.57
68801;SHT31;55784;50.734;7.086;2023-05-27T10:18:47;20.02;51.48
68801;SHT31;55784;50.734;7.086;2023-05-27T10:21:27;20.26;50.15
68801;SHT31;55784;50.734;7.086;2023-05-27T10:23:58;20.42;49.60
68801;SHT31;55784;50.734;7.086;2023-05-27T10:26:38;20.46;49.66
68801;SHT31;55784;50.734;7.086;2023-05-27T10:29:14;20.13;49.82
68801;SHT31;55784;50.734;7.086;2023-05-27T10:31:50;20.33;49.74
68801;SHT31;55784;50.734;7.086;2023-05-27T10:34:17;20.46;49.60
68801;SHT31;55784;50.734;7.086;2023-05-27T10:36:44;20.67;48.90
68801;SHT31;55784;50.734;7.086;2023-05-27T10:39:17;20.80;47.86
68801;SHT31;55784;50.734;7.086;2023-05-27T10:41:44;20.94;48.36
68801;SHT31;55784;50.734;7.086;2023-05-27T10:44:13;21.06;46.91
68801;SHT31;55784;50.734;7.086;2023-05-27T10:46:43;20.93;47.16
68801;SHT31;55784;50.734;7.086;2023-05-27T10:49:23;21.04;46.36
68801;SHT31;55784;50.734;7.086;2023-05-27T10:51:58;21.17;46.53
68801;SHT31;55784;50.734;7.086;2023-05-27T10:54:26;21.25;46.80
68801;SHT31;55784;50.734;7.086;2023-05-27T10:56:51;21.34;45.87
68801;SHT31;55784;50.734;7.086;2023-05-27T10:59:23;21.45;46.06
68801;SHT31;55784;50.734;7.086;2023-05-27T11:01:53;21.48;44.83
68801;SHT31;55784;50.734;7.086;2023-05-27T11:04:19;21.49;44.43
68801;SHT31;55784;50.734;7.086;2023-05-27T11:07:00;21.39;44.96
68801;SHT31;55784;50.734;7.086;2023-05-27T11:09:26;21.47;46.40
68801;SHT31;55784;50.734;7.086;2023-05-27T11:11:51;21.31;44.65
68801;SHT31;55784;50.734;7.086;2023-05-27T11:14:17;21.27;44.09
68801;SHT31;55784;50.734;7.086;2023-05-27T11:16:48;21.39;43.11
68801;SHT31;55784;50.734;7.086;2023-05-27T11:19:16;21.18;42.09
68801;SHT31;55784;50.734;7.086;2023-05-27T11:21:45;21.31;41.74
68801;SHT31;55784;50.734;7.086;2023-05-27T11:24:15;21.51;40.22
68801;SHT31;55784;50.734;7.086;2023-05-27T11:26:45;21.61;38.36
68801;SHT31;55784;50.734;7.086;2023-05-27T11:29:11;21.65;41.10
68801;SHT31;55784;50.734;7.086;2023-05-27T11:31:37;21.82;40.32
68801;SHT31;55784;50.734;7.086;2023-05-27T11:34:11;21.95;40.19
68801;SHT31;55784;50.734;7.086;2023-05-27T11:36:37;21.92;40.04
68801;SHT31;55784;50.734;7.086;2023-05-27T11:39:04;21.99;40.70
68801;SHT31;55784;50.734;7.086;2023-05-27T11:41:30;22.17;41.75
68801;SHT31;55784;50.734;7.086;2023-05-27T11:44:01;21.90;40.70
68801;SHT31;55784;50.734;7.086;2023-05-27T11:49:01;22.16;39.98
68801;SHT31;55784;50.734;7.086;2023-05-27T11:51:28;22.20;39.73
68801;SHT31;55784;50.734;7.086;2023-05-27T11:53:54;22.30;38.71
68801;SHT31;55784;50.734;7.086;2023-05-27T11:56:20;22.23;39.41
68801;SHT31;55784;50.734;7.086;2023-05-27T11:58:45;22.17;39.42
68801;SHT31;55784;50.734;7.086;2023-05-27T12:01:10;22.23;35.12
68801;SHT31;55784;50.734;7.086;2023-05-27T12:03:36;22.36;35.98
68801;SHT31;55784;50.734;7.086;2023-05-27T12:06:02;22.39;37.15
68801;SHT31;55784;50.734;7.086;2023-05-27T12:08:27;22.54;37.75
68801;SHT31;55784;50.734;7.086;2023-05-27T12:10:52;22.56;38.34
68801;SHT31;55784;50.734;7.086;2023-05-27T12:13:21;22.70;39.65
68801;SHT31;55784;50.734;7.086;2023-05-27T12:15:47;22.80;40.12
68801;SHT31;55784;50.734;7.086;2023-05-27T12:18:12;22.88;40.27
68801;SHT31;55784;50.734;7.086;2023-05-27T12:20:38;22.95;39.39
68801;SHT31;55784;50.734;7.086;2023-05-27T12:23:03;22.91;38.70
68801;SHT31;55784;50.734;7.086;2023-05-27T12:25:28;22.90;39.15
68801;SHT31;55784;50.734;7.086;2023-05-27T12:27:54;22.65;36.90
68801;SHT31;55784;50.734;7.086;2023-05-27T12:30:19;22.71;38.45
68801;SHT31;55784;50.734;7.086;2023-05-27T12:32:45;22.74;38.68
68801;SHT31;55784;50.734;7.086;2023-05-27T12:35:10;22.77;39.83
68801;SHT31;55784;50.734;7.086;2023-05-27T12:37:36;22.84;40.12
68801;SHT31;55784;50.734;7.086;2023-05-27T12:40:01;22.98;39.13
68801;SHT31;55784;50.734;7.086;2023-05-27T12:42:30;23.12;39.32
68801;SHT31;55784;50.734;7.086;2023-05-27T12:44:57;23.24;38.45
68801;SHT31;55784;50.734;7.086;2023-05-27T12:47:23;23.28;38.58
68801;SHT31;55784;50.734;7.086;2023-05-27T12:49:48;23.34;38.17
68801;SHT31;55784;50.734;7.086;2023-05-27T12:52:13;23.35;38.03
68801;SHT31;55784;50.734;7.086;2023-05-27T12:54:39;23.15;37.52
68801;SHT31;55784;50.734;7.086;2023-05-27T12:57:04;23.14;37.25
68801;SHT31;55784;50.734;7.086;2023-05-27T12:59:31;23.21;37.03
68801;SHT31;55784;50.734;7.086;2023-05-27T13:01:56;23.16;36.96
68801;SHT31;55784;50.734;7.086;2023-05-27T13:04:21;23.07;37.39
68801;SHT31;55784;50.734;7.086;2023-05-27T13:06:47;22.80;37.44
68801;SHT31;55784;50.734;7.086;2023-05-27T13:09:12;23.01;37.35
68801;SHT31;55784;50.734;7.086;2023-05-27T13:11:39;23.08;37.62
68801;SHT31;55784;50.734;7.086;2023-05-27T13:14:05;23.31;37.90
68801;SHT31;55784;50.734;7.086;2023-05-27T13:16:30;23.59;37.68
68801;SHT31;55784;50.734;7.086;2023-05-27T13:18:56;23.77;37.44
68801;SHT31;55784;50.734;7.086;2023-05-27T13:21:21;23.70;37.15
68801;SHT31;55784;50.734;7.086;2023-05-27T13:23:47;23.80;37.32
68801;SHT31;55784;50.734;7.086;2023-05-27T13:26:12;23.85;37.51
68801;SHT31;55784;50.734;7.086;2023-05-27T13:28:37;23.92;36.96
68801;SHT31;55784;50.734;7.086;2023-05-27T13:31:03;23.99;37.06
68801;SHT31;55784;50.734;7.086;2023-05-27T13:33:29;23.97;36.28
68801;SHT31;55784;50.734;7.086;2023-05-27T13:35:55;24.02;36.01
68801;SHT31;55784;50.734;7.086;2023-05-27T13:38:21;24.09;35.94
68801;SHT31;55784;50.734;7.086;2023-05-27T13:40:46;24.14;35.82
68801;SHT31;55784;50.734;7.086;2023-05-27T13:43:11;24.18;35.96
68801;SHT31;55784;50.734;7.086;2023-05-27T13:45:37;24.14;36.47
68801;SHT31;55784;50.734;7.086;2023-05-27T13:48:02;24.07;35.56
68801;SHT31;55784;50.734;7.086;2023-05-27T13:50:27;24.07;36.19
68801;SHT31;55784;50.734;7.086;2023-05-27T13:52:54;24.13;36.84
68801;SHT31;55784;50.734;7.086;2023-05-27T13:55:19;24.26;36.67
68801;SHT31;55784;50.734;7.086;2023-05-27T13:57:45;24.28;36.56
68801;SHT31;55784;50.734;7.086;2023-05-27T14:00:11;24.33;35.84
68801;SHT31;55784;50.734;7.086;2023-05-27T14:02:37;24.18;35.99
68801;SHT31;55784;50.734;7.086;2023-05-27T14:05:03;24.23;36.28
68801;SHT31;55784;50.734;7.086;2023-05-27T14:07:30;24.20;34.91
68801;SHT31;55784;50.734;7.086;2023-05-27T14:09:55;24.30;35.70
68801;SHT31;55784;50.734;7.086;2023-05-27T14:12:21;24.24;36.04
68801;SHT31;55784;50.734;7.086;2023-05-27T14:14:46;24.27;35.37
68801;SHT31;55784;50.734;7.086;2023-05-27T14:17:11;24.30;35.37
68801;SHT31;55784;50.734;7.086;2023-05-27T14:19:37;24.12;34.53
68801;SHT31;55784;50.734;7.086;2023-05-27T14:22:02;24.03;34.89
68801;SHT31;55784;50.734;7.086;2023-05-27T14:24:28;23.92;35.02
68801;SHT31;55784;50.734;7.086;2023-05-27T14:26:53;23.90;33.52
68801;SHT31;55784;50.734;7.086;2023-05-27T14:29:18;24.06;35.26
68801;SHT31;55784;50.734;7.086;2023-05-27T14:31:44;24.12;35.18
68801;SHT31;55784;50.734;7.086;2023-05-27T14:34:09;24.28;34.78
68801;SHT31;55784;50.734;7.086;2023-05-27T14:36:35;24.16;34.72
68801;SHT31;55784;50.734;7.086;2023-05-27T14:39:01;24.14;34.09
68801;SHT31;55784;50.734;7.086;2023-05-27T14:41:30;24.07;34.04
68801;SHT31;55784;50.734;7.086;2023-05-27T14:43:56;24.17;33.95
68801;SHT31;55784;50.734;7.086;2023-05-27T14:46:21;24.34;33.79
68801;SHT31;55784;50.734;7.086;2023-05-27T14:48:49;24.43;33.57
68801;SHT31;55784;50.734;7.086;2023-05-27T14:51:15;24.63;33.95
68801;SHT31;55784;50.734;7.086;2023-05-27T14:53:41;24.71;33.86
68801;SHT31;55784;50.734;7.086;2023-05-27T14:56:06;24.77;33.28
68801;SHT31;55784;50.734;7.086;2023-05-27T14:58:32;24.72;33.16
68801;SHT31;55784;50.734;7.086;2023-05-27T15:00:57;24.61;33.76
68801;SHT31;55784;50.734;7.086;2023-05-27T15:03:22;24.60;33.45
68801;SHT31;55784;50.734;7.086;2023-05-27T15:05:47;24.57;33.46
68801;SHT31;55784;50.734;7.086;2023-05-27T15:08:13;24.36;33.77
68801;SHT31;55784;50.734;7.086;2023-05-27T15:10:44;24.47;33.40
68801;SHT31;55784;50.734;7.086;2023-05-27T15:13:10;24.53;33.81
68801;SHT31;55784;50.734;7.086;2023-05-27T15:15:39;24.63;32.93
68801;SHT31;55784;50.734;7.086;2023-05-27T15:18:05;24.71;33.73
68801;SHT31;55784;50.734;7.086;2023-05-27T15:20:31;24.58;32.36
68801;SHT31;55784;50.734;7.086;2023-05-27T15:22:56;24.58;32.58
68801;SHT31;55784;50.734;7.086;2023-05-27T15:25:22;24.68;33.46
68801;SHT31;55784;50.734;7.086;2023-05-27T15:27:47;24.69;33.22
68801;SHT31;55784;50.734;7.086;2023-05-27T15:30:13;24.71;33.34